createdAt,value
2023-02-09T00:01:37.739Z,74.23
2023-02-09T00:06:38.529Z,74.41
2023-02-09T00:11:57.467Z,74.04
2023-02-09T00:17:00.941Z,73.46
2023-02-09T00:22:02.010Z,71.92
2023-02-09T00:27:03.422Z,74.02
2023-02-09T00:32:05.576Z,75.19
2023-02-09T00:37:06.725Z,75.55
2023-02-09T00:42:10.379Z,76.48
2023-02-09T00:47:11.169Z,77.47
2023-02-09T00:52:11.918Z,78.04
2023-02-09T00:57:12.804Z,78.58
2023-02-09T01:02:13.611Z,77.52
2023-02-09T01:07:14.402Z,76.54
2023-02-09T01:12:15.204Z,75.41
2023-02-09T01:17:15.993Z,74.48
2023-02-09T01:22:16.741Z,75.27
2023-02-09T01:27:23.305Z,75.84
2023-02-09T01:32:24.218Z,75.45
2023-02-09T01:37:27.975Z,75.15
2023-02-09T01:42:32.256Z,76.00
2023-02-09T01:47:41.386Z,74.82
2023-02-09T01:52:43.126Z,75.21
2023-02-09T01:57:53.411Z,75.21
2023-02-09T02:03:01.610Z,75.85
2023-02-09T02:08:13.965Z,75.63
2023-02-09T02:13:14.763Z,76.49
2023-02-09T02:18:49.764Z,76.33
2023-02-09T02:27:05.264Z,76.00
2023-02-09T02:32:13.637Z,76.44
2023-02-09T02:37:47.612Z,76.52
2023-02-09T02:43:06.947Z,76.07
2023-02-09T02:49:43.708Z,75.30
2023-02-09T02:54:52.257Z,76.28
2023-02-09T03:00:00.046Z,76.39
2023-02-09T03:05:03.048Z,76.60
2023-02-09T03:10:24.226Z,75.60
2023-02-09T03:17:40.431Z,77.69
2023-02-09T03:22:45.444Z,77.39
2023-02-09T03:28:26.539Z,77.82
2023-02-09T03:33:31.336Z,78.98
2023-02-09T03:38:32.147Z,79.11
2023-02-09T03:43:54.106Z,78.54
2023-02-09T03:48:56.393Z,80.84
2023-02-09T03:53:58.061Z,80.84
2023-02-09T03:58:59.551Z,81.12
2023-02-09T04:04:04.496Z,82.75
2023-02-09T04:09:05.998Z,82.93
2023-02-09T04:14:12.272Z,81.76
2023-02-09T04:19:13.307Z,82.92
2023-02-09T04:24:14.046Z,83.74
2023-02-09T04:29:14.865Z,84.25
2023-02-09T04:34:15.778Z,83.91
2023-02-09T04:39:26.390Z,84.35
2023-02-09T04:44:27.164Z,84.41
2023-02-09T04:49:28.158Z,84.86
2023-02-09T04:54:28.902Z,83.67
2023-02-09T04:59:36.396Z,84.92
2023-02-09T05:04:37.176Z,85.72
2023-02-09T05:09:41.028Z,84.47
2023-02-09T05:14:41.788Z,84.85
2023-02-09T05:19:45.875Z,85.77
2023-02-09T05:24:46.603Z,86.66
2023-02-09T05:29:49.122Z,86.97
2023-02-09T05:34:49.941Z,86.67
2023-02-09T05:39:50.787Z,86.39
2023-02-09T05:44:51.627Z,86.39
2023-02-09T05:49:52.345Z,86.47
2023-02-09T05:54:53.172Z,86.70
2023-02-09T05:59:53.883Z,86.80
2023-02-09T06:04:57.572Z,86.44
2023-02-09T06:09:58.391Z,87.15
2023-02-09T06:15:10.196Z,87.44
2023-02-09T06:20:14.094Z,87.71
2023-02-09T06:25:17.816Z,87.82
2023-02-09T06:30:19.375Z,88.20
2023-02-09T06:35:20.852Z,88.38
2023-02-09T06:40:24.858Z,87.45
2023-02-09T06:45:26.125Z,88.06
2023-02-09T06:50:27.157Z,87.64
2023-02-09T06:55:28.586Z,87.37
2023-02-09T07:00:31.357Z,86.75
2023-02-09T07:05:32.288Z,87.99
2023-02-09T07:10:33.232Z,89.35
2023-02-09T07:15:37.104Z,89.00
2023-02-09T07:20:41.896Z,89.41
2023-02-09T07:25:49.952Z,88.24
2023-02-09T07:30:52.406Z,87.71
2023-02-09T07:35:53.383Z,87.13
2023-02-09T07:40:54.744Z,86.51
2023-02-09T07:46:07.668Z,86.63
2023-02-09T07:51:26.972Z,85.29
2023-02-09T07:56:28.470Z,84.96
2023-02-09T08:01:29.718Z,84.35
2023-02-09T08:06:43.012Z,83.58
2023-02-09T08:12:04.290Z,83.52
2023-02-09T08:17:23.351Z,83.10
2023-02-09T08:22:29.311Z,82.49
2023-02-09T08:27:33.583Z,82.15
2023-02-09T08:32:37.944Z,82.11
2023-02-09T08:37:39.023Z,81.21
2023-02-09T08:42:43.868Z,78.85
2023-02-09T08:47:45.388Z,80.45
2023-02-09T08:52:52.332Z,81.58
2023-02-09T08:57:55.994Z,80.83
2023-02-09T09:02:56.862Z,81.96
2023-02-09T09:08:03.269Z,78.84
2023-02-09T09:13:04.341Z,78.92
2023-02-09T09:18:11.311Z,77.76
2023-02-09T09:23:15.587Z,78.62
2023-02-09T09:28:16.688Z,78.42
2023-02-09T09:33:19.117Z,76.13
2023-02-09T09:38:22.204Z,70.80
2023-02-09T09:43:33.847Z,67.97
2023-02-09T09:48:47.140Z,64.96
2023-02-09T09:53:50.360Z,60.78
2023-02-09T09:58:53.943Z,61.48
2023-02-09T10:04:12.536Z,62.13
2023-02-09T10:09:32.671Z,60.42
2023-02-09T10:14:33.617Z,60.02
2023-02-09T10:19:40.716Z,58.04
2023-02-09T10:24:41.468Z,60.52
2023-02-09T10:29:44.934Z,59.77
2023-02-09T10:34:51.675Z,58.32
2023-02-09T10:39:59.506Z,58.59
2023-02-09T10:45:20.577Z,59.78
2023-02-09T10:50:21.755Z,60.89
2023-02-09T10:55:27.917Z,62.00
2023-02-09T11:00:36.331Z,59.63
2023-02-09T11:05:39.107Z,56.18
2023-02-09T11:10:46.585Z,57.96
2023-02-09T11:16:24.812Z,58.03
2023-02-09T11:21:39.941Z,59.14
2023-02-09T11:26:57.452Z,59.34
2023-02-09T11:32:26.204Z,56.84
2023-02-09T11:38:18.096Z,55.40
2023-02-09T11:43:40.086Z,56.32
2023-02-09T11:48:47.981Z,55.55
2023-02-09T11:54:06.626Z,59.43
2023-02-09T11:59:32.157Z,61.62
2023-02-09T12:04:49.305Z,61.61
2023-02-09T12:10:16.019Z,57.50
2023-02-09T12:15:20.197Z,56.89
2023-02-09T12:23:52.707Z,56.66
2023-02-09T12:29:40.660Z,56.50
2023-02-09T12:34:49.853Z,56.80
2023-02-09T12:43:26.647Z,58.53
2023-02-09T12:48:27.396Z,58.27
2023-02-09T12:53:40.003Z,54.53
2023-02-09T12:59:26.524Z,50.11
2023-02-09T13:04:31.580Z,53.04
2023-02-09T13:09:37.685Z,51.46
2023-02-09T13:14:38.583Z,45.83
2023-02-09T13:21:26.859Z,45.84
2023-02-09T13:26:31.687Z,50.18
2023-02-09T13:31:42.013Z,53.67
2023-02-09T13:37:17.868Z,54.10
2023-02-09T13:42:22.093Z,54.43
2023-02-09T13:47:23.730Z,54.12
2023-02-09T13:52:25.990Z,54.46
2023-02-09T13:57:37.595Z,55.52
2023-02-09T14:02:38.884Z,53.08
2023-02-09T14:07:40.178Z,53.40
2023-02-09T14:12:58.866Z,53.21
2023-02-09T14:17:59.602Z,54.03
2023-02-09T14:23:01.436Z,55.02
2023-02-09T14:28:02.655Z,57.26
2023-02-09T14:33:03.615Z,57.71
2023-02-09T14:38:04.399Z,57.20
2023-02-09T14:43:38.222Z,57.11
2023-02-09T14:48:39.433Z,57.09
2023-02-09T14:53:42.950Z,57.24
2023-02-09T14:58:43.761Z,55.04
2023-02-09T15:03:44.558Z,55.94
2023-02-09T15:08:45.361Z,56.00
2023-02-09T15:13:46.978Z,56.50
2023-02-09T15:18:47.694Z,55.79
2023-02-09T15:23:48.504Z,56.67
2023-02-09T15:28:49.380Z,56.24
2023-02-09T15:33:50.150Z,57.15
2023-02-09T15:38:50.869Z,58.44
2023-02-09T15:44:10.087Z,59.50
2023-02-09T15:49:11.033Z,60.17
2023-02-09T15:54:17.136Z,60.39
2023-02-09T15:59:20.936Z,62.11
2023-02-09T16:04:21.697Z,62.72
2023-02-09T16:09:26.943Z,63.25
2023-02-09T16:14:27.818Z,63.60
2023-02-09T16:19:28.860Z,64.08
2023-02-09T16:24:38.629Z,64.51
2023-02-09T16:29:39.524Z,64.80
2023-02-09T16:34:40.319Z,66.89
2023-02-09T16:39:41.551Z,67.76
2023-02-09T16:44:42.452Z,68.76
2023-02-09T16:49:54.213Z,70.26
2023-02-09T16:55:00.115Z,71.24
2023-02-09T17:00:01.757Z,71.74
2023-02-09T17:05:17.852Z,72.80
2023-02-09T17:10:20.952Z,72.72
2023-02-09T17:15:30.494Z,72.70
2023-02-09T17:20:40.225Z,76.30
2023-02-09T17:25:41.002Z,76.30
2023-02-09T17:30:42.377Z,77.83
2023-02-09T17:36:17.603Z,76.57
2023-02-09T17:41:36.363Z,77.17
2023-02-09T17:46:37.167Z,78.90
2023-02-09T17:51:40.654Z,79.16
2023-02-09T17:56:41.983Z,78.75
2023-02-09T18:01:45.856Z,79.50
2023-02-09T18:06:51.112Z,81.01
2023-02-09T18:12:03.605Z,80.21
2023-02-09T18:17:04.454Z,81.28
2023-02-09T18:22:05.966Z,81.52
2023-02-09T18:27:07.988Z,82.27
2023-02-09T18:32:12.106Z,83.63
2023-02-09T18:37:14.540Z,83.06
2023-02-09T18:42:15.595Z,84.28
2023-02-09T18:47:16.427Z,85.05
2023-02-09T18:52:17.955Z,85.49
2023-02-09T18:57:18.814Z,84.49
2023-02-09T19:02:20.088Z,85.42
2023-02-09T19:07:21.612Z,84.90
2023-02-09T19:12:22.545Z,85.55
2023-02-09T19:17:23.563Z,86.51
2023-02-09T19:22:25.144Z,86.76
2023-02-09T19:27:27.000Z,87.40
2023-02-09T19:32:28.188Z,85.02
2023-02-09T19:37:29.131Z,84.53
2023-02-09T19:42:32.848Z,85.10
2023-02-09T19:47:33.642Z,83.76
2023-02-09T19:52:36.527Z,83.77
2023-02-09T19:57:37.340Z,84.22
2023-02-09T20:02:39.111Z,82.92
2023-02-09T20:07:40.120Z,79.37
2023-02-09T20:12:40.973Z,73.88
2023-02-09T20:17:43.477Z,72.16
2023-02-09T20:22:44.258Z,71.33
2023-02-09T20:27:49.196Z,70.01
2023-02-09T20:32:50.141Z,70.03
2023-02-09T20:37:52.249Z,70.80
2023-02-09T20:43:11.421Z,70.54
2023-02-09T20:48:13.025Z,71.23
2023-02-09T20:53:14.038Z,71.93
2023-02-09T20:58:14.833Z,71.63
2023-02-09T21:03:15.689Z,72.41
2023-02-09T21:08:16.444Z,71.95
2023-02-09T21:13:17.202Z,71.17
2023-02-09T21:18:18.129Z,71.23
2023-02-09T21:23:19.642Z,72.71
2023-02-09T21:28:20.443Z,72.75
2023-02-09T21:33:21.337Z,72.76
2023-02-09T21:38:22.098Z,72.66
2023-02-09T21:43:23.030Z,72.93
2023-02-09T21:48:23.754Z,75.84
2023-02-09T21:53:24.590Z,71.83
2023-02-09T21:58:25.323Z,70.62
2023-02-09T22:03:26.192Z,71.02
2023-02-09T22:08:28.196Z,71.15
2023-02-09T22:13:29.814Z,71.78
2023-02-09T22:18:30.554Z,72.55
2023-02-09T22:23:31.327Z,73.09
2023-02-09T22:28:35.855Z,73.99
2023-02-09T22:33:37.783Z,75.39
2023-02-09T22:38:38.780Z,75.10
2023-02-09T22:43:39.580Z,75.10
2023-02-09T22:48:40.313Z,74.53
2023-02-09T22:53:41.145Z,75.25
2023-02-09T22:58:42.207Z,74.58
2023-02-09T23:03:43.156Z,73.24
2023-02-09T23:08:44.831Z,72.48
2023-02-09T23:13:45.670Z,73.62
2023-02-09T23:18:51.632Z,73.81
2023-02-09T23:23:53.132Z,74.83
2023-02-09T23:28:58.553Z,74.95
2023-02-09T23:33:59.570Z,75.49
2023-02-09T23:39:04.462Z,76.47
2023-02-09T23:44:05.226Z,75.61
2023-02-09T23:49:06.269Z,76.68
2023-02-09T23:54:07.413Z,77.64
2023-02-09T23:59:11.951Z,78.69
